Time;durP1;ratioP1;P1;durP2;ratioP2;P2;SDS_P1;SDS_P2;PMS_P1;PMS_P2;Temp;Humidity;BMP_temperature;BMP_pressure;BME280_temperature;BME280_humidity;BME280_pressure;Samples;Min_cycle;Max_cycle;Signal;HPM_P1;HPM_P2
2021/04/21 00:01:06;;;;;;;13.87;10.07;;;8.40;99.90;;;;;;5068056;28;20477;-85
2021/04/21 00:03:35;;;;;;;12.45;9.77;;;8.60;99.90;;;;;;5044926;28;20520;-86
2021/04/21 00:06:03;;;;;;;15.90;9.80;;;8.60;99.90;;;;;;5036940;28;20230;-87
2021/04/21 00:08:32;;;;;;;11.70;9.40;;;8.50;99.90;;;;;;5035344;28;20280;-86
2021/04/21 00:10:59;;;;;;;17.20;9.13;;;8.40;99.90;;;;;;5044627;28;20309;-86
2021/04/21 00:13:27;;;;;;;15.40;10.70;;;8.40;99.90;;;;;;5056114;28;20484;-85
2021/04/21 00:15:53;;;;;;;15.77;10.60;;;8.30;99.90;;;;;;5055486;28;20272;-85
2021/04/21 00:18:23;;;;;;;18.27;10.88;;;8.30;99.90;;;;;;5053282;28;20205;-85
2021/04/21 00:20:52;;;;;;;14.05;10.55;;;8.40;99.90;;;;;;5054924;28;20772;-85
2021/04/21 00:23:19;;;;;;;17.90;12.00;;;8.50;99.90;;;;;;5055424;28;20677;-85
2021/04/21 00:25:53;;;;;;;17.73;10.02;;;8.30;99.90;;;;;;5054887;28;20480;-87
2021/04/21 00:28:22;;;;;;;15.40;10.45;;;8.50;99.90;;;;;;5054349;28;20633;-84
2021/04/21 00:30:49;;;;;;;17.05;10.60;;;8.40;99.90;;;;;;5053958;28;20253;-86
2021/04/21 00:33:18;;;;;;;15.10;9.93;;;8.40;99.90;;;;;;5054662;28;20198;-86
2021/04/21 00:35:46;;;;;;;16.85;11.13;;;8.40;99.90;;;;;;5036052;28;20450;-86
2021/04/21 00:38:14;;;;;;;14.10;10.05;;;8.40;99.90;;;;;;5034637;28;20237;-86
2021/04/21 00:40:50;;;;;;;12.82;9.75;;;8.30;99.90;;;;;;5043451;28;20333;-86
2021/04/21 00:43:24;;;;;;;15.98;11.00;;;8.00;99.90;;;;;;5042819;28;20307;-86
2021/04/21 00:45:56;;;;;;;18.02;10.55;;;8.00;99.90;;;;;;5035997;28;20923;-85
2021/04/21 00:48:31;;;;;;;17.23;11.60;;;8.10;99.90;;;;;;5037059;28;20247;-86
2021/04/21 00:51:02;;;;;;;14.90;10.90;;;8.20;99.90;;;;;;5050326;28;20223;-86
2021/04/21 00:53:34;;;;;;;14.07;9.95;;;7.90;99.90;;;;;;5044531;28;20211;-86
2021/04/21 00:56:06;;;;;;;14.43;10.55;;;8.20;99.90;;;;;;5038063;28;20199;-86
2021/04/21 00:58:46;;;;;;;17.90;10.90;;;8.00;99.90;;;;;;5035693;28;20246;-86
2021/04/21 01:01:13;;;;;;;15.68;10.43;;;8.00;99.90;;;;;;5035612;28;20776;-86
2021/04/21 01:03:42;;;;;;;16.73;11.40;;;7.90;99.90;;;;;;5035393;28;20655;-86
2021/04/21 01:06:12;;;;;;;14.23;10.50;;;7.80;99.90;;;;;;5035520;28;20207;-86
2021/04/21 01:08:42;;;;;;;15.38;9.85;;;7.70;99.90;;;;;;5053083;28;20199;-86
2021/04/21 01:11:14;;;;;;;14.35;11.20;;;7.80;99.90;;;;;;5045206;28;20235;-86
2021/04/21 01:13:45;;;;;;;13.98;9.82;;;7.80;99.90;;;;;;5036958;28;20674;-86
2021/04/21 01:16:14;;;;;;;14.30;10.43;;;7.90;99.90;;;;;;5038130;28;20214;-86
2021/04/21 01:18:43;;;;;;;17.52;11.18;;;7.70;99.90;;;;;;5037527;28;20195;-86
2021/04/21 01:21:14;;;;;;;16.33;11.05;;;7.80;99.90;;;;;;5035118;28;20292;-86
2021/04/21 01:23:54;;;;;;;17.17;11.57;;;7.90;99.90;;;;;;5040330;28;20207;-86
2021/04/21 01:26:34;;;;;;;14.40;10.75;;;7.70;99.90;;;;;;5056471;28;20203;-85
2021/04/21 01:29:03;;;;;;;16.80;10.05;;;7.90;99.90;;;;;;5059131;28;20221;-85
2021/04/21 01:31:34;;;;;;;15.45;10.20;;;7.80;99.90;;;;;;5055109;28;20350;-85
2021/04/21 01:34:03;;;;;;;15.40;10.93;;;7.80;99.90;;;;;;5054708;28;20203;-85
2021/04/21 01:36:32;;;;;;;13.38;10.23;;;7.90;99.90;;;;;;5055154;28;20280;-85
2021/04/21 01:39:02;;;;;;;15.90;10.40;;;7.80;99.90;;;;;;5055375;28;20205;-86
2021/04/21 01:41:35;;;;;;;14.85;10.32;;;7.80;99.90;;;;;;5066216;28;20268;-85
2021/04/21 01:44:05;;;;;;;16.25;11.98;;;7.80;99.90;;;;;;5078787;28;20198;-85
2021/04/21 01:46:38;;;;;;;17.25;10.82;;;7.90;99.90;;;;;;5074844;28;20208;-85
2021/04/21 01:49:12;;;;;;;16.38;10.80;;;7.80;99.90;;;;;;5074648;28;20222;-85
2021/04/21 01:51:43;;;;;;;15.98;10.98;;;7.80;99.90;;;;;;5074658;28;20304;-85
2021/04/21 01:54:14;;;;;;;17.60;12.00;;;7.70;99.90;;;;;;5074351;28;20213;-85
2021/04/21 01:56:45;;;;;;;15.20;11.48;;;7.70;99.90;;;;;;5067814;28;20222;-85
2021/04/21 01:59:21;;;;;;;14.75;11.20;;;7.50;99.90;;;;;;5054938;28;20277;-85
2021/04/21 02:01:53;;;;;;;14.95;11.38;;;7.60;99.90;;;;;;5060483;28;20230;-85
2021/04/21 02:04:35;;;;;;;15.15;11.32;;;7.40;99.90;;;;;;5057650;28;20209;-84
2021/04/21 02:07:26;;;;;;;19.25;11.70;;;7.40;99.90;;;;;;5047423;28;20300;-85
2021/04/21 02:10:21;;;;;;;16.50;11.35;;;7.30;99.90;;;;;;5043912;28;20203;-85
2021/04/21 02:13:14;;;;;;;20.00;12.52;;;7.30;99.90;;;;;;5045341;28;20270;-85
2021/04/21 02:15:57;;;;;;;16.63;12.98;;;7.30;99.90;;;;;;5038994;28;20211;-85
2021/04/21 02:18:33;;;;;;;14.88;11.43;;;7.60;99.90;;;;;;5042438;28;20218;-85
2021/04/21 02:21:14;;;;;;;16.50;11.55;;;7.40;99.90;;;;;;5045960;28;20265;-85
2021/04/21 02:23:46;;;;;;;16.80;11.75;;;7.40;99.90;;;;;;5054940;28;20195;-84
2021/04/21 02:26:25;;;;;;;21.83;11.60;;;7.50;99.90;;;;;;5053883;28;20217;-83
2021/04/21 02:28:57;;;;;;;15.50;11.65;;;7.10;99.90;;;;;;5053129;28;20280;-84
2021/04/21 02:31:31;;;;;;;17.63;12.45;;;7.20;99.90;;;;;;5044789;28;20648;-85
2021/04/21 02:34:08;;;;;;;20.33;12.48;;;7.30;99.90;;;;;;5049424;28;20247;-84
2021/04/21 02:36:43;;;;;;;18.13;12.18;;;7.30;99.90;;;;;;5053838;28;20274;-84
2021/04/21 02:39:17;;;;;;;20.25;14.52;;;7.10;99.90;;;;;;5057648;28;20202;-84
2021/04/21 02:41:51;;;;;;;17.85;13.38;;;7.10;99.90;;;;;;5056616;28;20308;-84
2021/04/21 02:44:26;;;;;;;20.40;13.80;;;7.20;99.90;;;;;;5069246;28;20202;-84
2021/04/21 02:47:02;;;;;;;19.30;12.70;;;7.30;99.90;;;;;;5071246;28;20170;-84
2021/04/21 02:49:51;;;;;;;17.88;12.95;;;7.60;99.90;;;;;;5061405;28;20227;-84
2021/04/21 02:52:28;;;;;;;17.95;12.40;;;7.40;99.90;;;;;;5057451;28;20282;-84
2021/04/21 02:55:09;;;;;;;16.42;11.82;;;7.20;99.90;;;;;;5054268;28;20226;-84
2021/04/21 02:57:56;;;;;;;21.25;13.85;;;7.30;99.90;;;;;;5043478;28;20227;-85
2021/04/21 03:00:28;;;;;;;19.45;12.07;;;7.10;99.90;;;;;;5042589;28;20223;-83
2021/04/21 03:03:06;;;;;;;18.58;13.38;;;7.00;99.90;;;;;;5045438;28;20234;-86
2021/04/21 03:05:37;;;;;;;24.27;13.00;;;7.30;99.90;;;;;;5048116;28;20226;-84
2021/04/21 03:08:08;;;;;;;20.02;12.93;;;7.20;99.90;;;;;;5046326;28;20188;-85
2021/04/21 03:10:39;;;;;;;21.13;13.52;;;7.10;99.90;;;;;;5042134;28;20385;-86
2021/04/21 03:13:10;;;;;;;19.92;14.27;;;7.20;99.90;;;;;;5042271;28;20218;-85
2021/04/21 03:15:41;;;;;;;23.63;15.20;;;7.40;99.90;;;;;;5043425;28;20275;-85
2021/04/21 03:18:12;;;;;;;21.77;15.35;;;7.10;99.90;;;;;;5044700;28;20246;-85
2021/04/21 03:20:40;;;;;;;19.88;13.18;;;7.10;99.90;;;;;;5043752;28;20238;-85
2021/04/21 03:23:11;;;;;;;21.83;14.10;;;7.30;99.90;;;;;;5044050;28;20207;-85
2021/04/21 03:25:40;;;;;;;16.50;13.50;;;7.00;99.90;;;;;;5042963;28;20244;-85
2021/04/21 03:28:09;;;;;;;22.13;13.98;;;7.00;99.90;;;;;;5045000;28;20266;-85
2021/04/21 03:30:37;;;;;;;22.63;13.45;;;7.00;99.90;;;;;;5047842;28;20678;-84
2021/04/21 03:33:09;;;;;;;19.65;13.30;;;7.20;99.90;;;;;;5046964;28;20294;-85
2021/04/21 03:35:37;;;;;;;24.55;14.88;;;7.00;99.90;;;;;;5046766;28;20179;-85
2021/04/21 03:38:07;;;;;;;20.58;14.45;;;7.00;99.90;;;;;;5072182;28;20257;-85
2021/04/21 03:40:34;;;;;;;22.38;15.80;;;7.00;99.90;;;;;;5068256;28;20266;-85
2021/04/21 03:43:01;;;;;;;21.90;16.33;;;7.00;99.90;;;;;;5068080;28;20264;-85
2021/04/21 03:45:28;;;;;;;27.58;15.75;;;6.90;99.90;;;;;;5070343;28;20198;-85
2021/04/21 03:47:56;;;;;;;24.60;16.20;;;6.90;99.90;;;;;;5069680;28;20242;-85
2021/04/21 03:50:24;;;;;;;23.08;15.60;;;6.70;99.90;;;;;;5065380;28;20226;-85
2021/04/21 03:52:54;;;;;;;21.45;14.52;;;6.70;99.90;;;;;;5065677;28;20238;-85
2021/04/21 03:55:22;;;;;;;22.60;14.85;;;6.90;99.90;;;;;;5065136;28;20244;-85
2021/04/21 03:57:52;;;;;;;23.02;16.48;;;6.70;99.90;;;;;;5064923;28;20226;-85
2021/04/21 04:00:20;;;;;;;22.92;15.02;;;6.80;99.90;;;;;;5064584;28;20234;-85
2021/04/21 04:02:51;;;;;;;21.30;14.65;;;6.80;99.90;;;;;;5064340;28;20214;-85
2021/04/21 04:05:22;;;;;;;23.15;16.17;;;6.50;99.90;;;;;;5063258;28;20238;-85
2021/04/21 04:07:52;;;;;;;25.15;16.35;;;6.70;99.90;;;;;;5064831;28;20202;-85
2021/04/21 04:10:19;;;;;;;22.27;15.63;;;6.60;99.90;;;;;;5064414;28;20258;-85
2021/04/21 04:12:48;;;;;;;26.13;16.55;;;6.60;99.90;;;;;;5064307;28;20244;-84
2021/04/21 04:15:15;;;;;;;26.45;16.50;;;6.70;99.90;;;;;;5063985;28;20297;-85
2021/04/21 04:17:47;;;;;;;23.98;15.30;;;6.70;99.90;;;;;;5060572;28;20227;-85
2021/04/21 04:20:15;;;;;;;26.50;16.13;;;6.60;99.90;;;;;;5041196;28;20257;-85
2021/04/21 04:22:45;;;;;;;22.75;16.05;;;6.60;99.90;;;;;;5038675;28;20258;-84
2021/04/21 04:25:14;;;;;;;24.25;15.60;;;6.70;99.90;;;;;;5049111;28;20229;-85
2021/04/21 04:27:42;;;;;;;26.52;16.48;;;6.50;99.90;;;;;;5046242;28;20203;-85
2021/04/21 04:30:10;;;;;;;20.95;15.27;;;6.80;99.90;;;;;;5045998;28;20665;-85
2021/04/21 04:32:40;;;;;;;24.75;17.23;;;6.50;99.90;;;;;;5057989;28;20199;-85
2021/04/21 04:35:08;;;;;;;22.48;15.45;;;6.70;99.90;;;;;;5068706;28;20236;-85
2021/04/21 04:37:38;;;;;;;25.05;15.80;;;6.70;99.90;;;;;;5070980;28;20275;-83
2021/04/21 04:42:34;;;;;;;24.73;15.80;;;6.60;99.90;;;;;;5087356;22;20301;-81
2021/04/21 04:45:03;;;;;;;22.63;15.80;;;6.50;99.90;;;;;;5054998;28;20326;-81
2021/04/21 04:47:35;;;;;;;31.38;17.50;;;6.50;99.90;;;;;;5040072;28;20203;-81
2021/04/21 04:50:05;;;;;;;28.05;18.17;;;6.70;99.90;;;;;;5035335;28;20211;-80
2021/04/21 04:52:34;;;;;;;27.83;17.63;;;6.70;99.90;;;;;;5041186;28;20371;-82
2021/04/21 04:55:01;;;;;;;25.38;18.05;;;6.40;99.90;;;;;;5041105;28;20290;-82
2021/04/21 04:57:30;;;;;;;27.30;16.95;;;6.60;99.90;;;;;;5034418;28;20227;-83
2021/04/21 05:00:00;;;;;;;31.92;18.17;;;6.80;99.90;;;;;;5040302;28;20218;-81
2021/04/21 05:02:29;;;;;;;24.48;17.33;;;6.80;99.90;;;;;;5054934;28;20240;-82
2021/04/21 05:04:57;;;;;;;31.10;18.55;;;6.60;99.90;;;;;;5054824;28;20217;-82
2021/04/21 05:07:27;;;;;;;26.67;16.90;;;7.00;99.90;;;;;;5054757;28;20301;-81
2021/04/21 05:10:00;;;;;;;24.60;16.92;;;7.00;99.90;;;;;;5057927;28;20244;-80
2021/04/21 05:12:29;;;;;;;27.63;17.05;;;6.80;99.90;;;;;;5067132;28;20239;-80
2021/04/21 05:14:58;;;;;;;25.38;17.70;;;6.80;99.90;;;;;;5040187;28;20294;-82
2021/04/21 05:17:58;;;;;;;26.08;17.50;;;7.00;99.90;;;;;;5035121;28;20280;-81
2021/04/21 05:21:10;;;;;;;29.50;17.17;;;6.90;99.90;;;;;;5036238;28;20211;-80
2021/04/21 05:24:19;;;;;;;24.60;16.52;;;7.20;99.90;;;;;;5035042;28;20210;-81
2021/04/21 05:27:28;;;;;;;32.20;18.50;;;7.00;99.90;;;;;;5034184;28;20235;-81
2021/04/21 05:30:21;;;;;;;29.40;17.50;;;7.20;99.90;;;;;;4997554;28;20209;-80
2021/04/21 05:33:33;;;;;;;24.90;16.88;;;7.10;99.90;;;;;;5033061;28;20271;-80
2021/04/21 05:36:50;;;;;;;28.05;17.00;;;7.30;99.90;;;;;;5033575;28;20282;-81
2021/04/21 05:39:57;;;;;;;25.67;17.88;;;7.20;99.90;;;;;;5034372;28;20688;-81
2021/04/21 05:43:16;;;;;;;28.27;18.45;;;7.30;99.90;;;;;;5050799;28;20242;-83
2021/04/21 05:46:17;;;;;;;28.63;17.77;;;7.40;99.90;;;;;;5055816;28;20214;-80
2021/04/21 05:49:13;;;;;;;24.95;17.63;;;7.60;99.90;;;;;;5055454;28;20348;-80
2021/04/21 05:52:00;;;;;;;24.25;17.13;;;7.60;99.90;;;;;;5056420;28;20261;-79
2021/04/21 05:55:06;;;;;;;27.83;18.33;;;7.60;99.90;;;;;;5056225;28;20239;-79
2021/04/21 05:58:07;;;;;;;25.15;18.02;;;7.70;99.90;;;;;;5036023;28;20231;-81
2021/04/21 06:01:16;;;;;;;29.65;18.48;;;7.80;99.90;;;;;;5009382;28;20234;-81
2021/04/21 06:03:44;;;;;;;28.08;20.02;;;7.90;99.90;;;;;;5034811;28;20235;-81
2021/04/21 06:06:12;;;;;;;27.30;19.08;;;8.00;99.90;;;;;;5035910;28;20303;-79
2021/04/21 06:08:38;;;;;;;25.38;18.05;;;8.20;99.90;;;;;;5043196;28;20214;-80
2021/04/21 06:11:16;;;;;;;28.30;18.95;;;8.20;99.90;;;;;;5054695;28;20227;-80
2021/04/21 06:13:44;;;;;;;30.27;19.80;;;8.40;99.90;;;;;;5057722;28;20210;-81
2021/04/21 06:16:17;;;;;;;23.27;18.03;;;8.60;99.90;;;;;;5054624;28;20464;-82
2021/04/21 06:18:43;;;;;;;28.60;19.20;;;8.50;99.90;;;;;;5052479;28;20487;-81
2021/04/21 06:21:16;;;;;;;26.48;18.55;;;8.70;99.90;;;;;;5055449;28;20536;-81
2021/04/21 06:23:43;;;;;;;28.40;20.00;;;8.70;99.90;;;;;;5053507;28;20241;-79
2021/04/21 06:26:10;;;;;;;32.57;20.07;;;8.90;99.90;;;;;;5054187;28;20460;-81
2021/04/21 06:28:37;;;;;;;34.00;19.70;;;9.00;99.90;;;;;;5054262;28;20523;-81
2021/04/21 06:31:06;;;;;;;26.80;19.23;;;9.30;99.90;;;;;;5053479;28;20481;-81
2021/04/21 06:33:34;;;;;;;33.20;19.80;;;9.40;99.90;;;;;;5055163;28;20459;-81
2021/04/21 06:36:02;;;;;;;29.57;18.67;;;9.60;99.90;;;;;;5056382;28;20441;-80
2021/04/21 06:38:29;;;;;;;29.37;20.50;;;9.70;99.90;;;;;;5040049;28;20551;-80
2021/04/21 06:40:56;;;;;;;29.03;20.23;;;9.80;99.90;;;;;;5033457;28;20484;-83
2021/04/21 06:43:27;;;;;;;27.13;19.80;;;10.00;99.90;;;;;;5033232;28;20944;-78
2021/04/21 06:45:53;;;;;;;25.40;18.87;;;10.30;99.90;;;;;;5032368;28;20450;-79
2021/04/21 06:48:31;;;;;;;30.87;20.70;;;10.50;99.90;;;;;;5033550;28;20514;-80
2021/04/21 06:51:07;;;;;;;26.20;19.97;;;10.60;99.90;;;;;;5042445;28;20485;-80
2021/04/21 06:53:34;;;;;;;28.37;20.80;;;10.70;99.90;;;;;;5033053;28;20569;-80
2021/04/21 06:56:00;;;;;;;33.27;21.50;;;10.80;99.90;;;;;;5033473;28;20457;-79
2021/04/21 06:58:29;;;;;;;28.70;22.17;;;10.80;99.90;;;;;;5034061;28;20489;-82
2021/04/21 07:00:56;;;;;;;27.50;21.40;;;11.00;99.90;;;;;;5033727;28;20857;-81
2021/04/21 07:03:23;;;;;;;30.33;21.43;;;11.20;99.90;;;;;;5036121;28;20603;-83
2021/04/21 07:05:50;;;;;;;28.17;21.73;;;11.30;99.90;;;;;;5049774;28;20479;-82
2021/04/21 07:08:18;;;;;;;24.73;18.40;;;11.50;99.90;;;;;;5057462;28;20476;-82
2021/04/21 07:10:47;;;;;;;26.47;20.60;;;11.70;99.90;;;;;;5059547;28;20556;-83
2021/04/21 07:13:19;;;;;;;28.37;21.00;;;11.80;99.90;;;;;;5053529;28;21005;-81
2021/04/21 07:15:47;;;;;;;32.07;21.60;;;11.90;99.90;;;;;;5039052;28;20537;-82
2021/04/21 07:18:16;;;;;;;26.40;21.10;;;11.80;99.90;;;;;;5038267;28;20456;-82
2021/04/21 07:20:43;;;;;;;34.90;22.13;;;11.80;99.90;;;;;;5058985;28;20534;-82
2021/04/21 07:23:11;;;;;;;32.80;22.93;;;11.70;99.90;;;;;;5060345;28;20540;-81
2021/04/21 07:25:40;;;;;;;30.90;21.60;;;11.70;99.90;;;;;;5062086;28;20448;-80
2021/04/21 07:28:07;;;;;;;27.63;20.77;;;11.60;99.90;;;;;;5062045;28;20476;-82
2021/04/21 07:30:35;;;;;;;30.13;21.60;;;11.50;99.90;;;;;;5059070;28;20533;-82
2021/04/21 07:33:02;;;;;;;32.30;22.53;;;11.70;99.90;;;;;;5052805;28;20477;-82
2021/04/21 07:35:30;;;;;;;36.97;23.03;;;11.70;99.90;;;;;;5040038;28;20486;-80
2021/04/21 07:37:57;;;;;;;31.90;22.40;;;11.80;99.90;;;;;;5044027;28;21031;-81
2021/04/21 07:40:28;;;;;;;34.87;23.63;;;11.80;99.90;;;;;;5046195;28;20465;-80
2021/04/21 07:43:13;;;;;;;33.07;23.00;;;11.90;99.90;;;;;;5044873;28;20835;-82
2021/04/21 07:45:45;;;;;;;31.77;22.13;;;12.00;99.90;;;;;;5043591;28;20531;-81
2021/04/21 07:48:39;;;;;;;29.87;23.47;;;12.10;99.90;;;;;;5062881;28;20883;-81
2021/04/21 07:51:48;;;;;;;29.60;21.40;;;12.20;99.90;;;;;;5046200;28;20603;-80
2021/04/21 07:54:26;;;;;;;31.83;21.17;;;12.20;99.90;;;;;;5056718;28;20546;-82
2021/04/21 07:57:04;;;;;;;28.37;21.60;;;12.40;99.90;;;;;;5056523;28;20595;-83
2021/04/21 07:59:33;;;;;;;34.67;22.10;;;12.60;99.90;;;;;;5057623;28;20484;-83
2021/04/21 08:02:14;;;;;;;34.27;23.27;;;12.80;99.90;;;;;;5057218;28;20486;-82
2021/04/21 08:04:56;;;;;;;31.73;20.40;;;12.80;99.90;;;;;;5054605;28;20467;-83
2021/04/21 08:07:31;;;;;;;27.87;20.60;;;13.00;99.90;;;;;;5056791;28;20464;-83
2021/04/21 08:09:58;;;;;;;29.57;21.50;;;13.10;99.90;;;;;;5055966;28;20491;-82
2021/04/21 08:12:27;;;;;;;27.93;20.70;;;13.30;99.90;;;;;;5056075;28;20560;-81
2021/04/21 08:14:59;;;;;;;27.53;21.23;;;13.40;99.90;;;;;;5035975;28;20473;-82
2021/04/21 08:17:25;;;;;;;28.37;20.37;;;13.50;99.90;;;;;;5036043;28;20531;-82
2021/04/21 08:19:54;;;;;;;22.73;17.73;;;13.60;99.90;;;;;;5042672;28;20871;-82
2021/04/21 08:22:26;;;;;;;30.13;21.70;;;13.70;99.90;;;;;;5036333;28;20514;-81
2021/04/21 08:24:54;;;;;;;25.53;19.53;;;13.70;99.90;;;;;;5036058;28;20926;-82
2021/04/21 08:27:21;;;;;;;27.07;20.97;;;13.80;99.90;;;;;;5035945;28;20496;-82
2021/04/21 08:29:50;;;;;;;25.03;19.30;;;14.00;99.90;;;;;;5036509;28;20442;-82
2021/04/21 08:32:19;;;;;;;24.03;15.83;;;14.00;99.90;;;;;;5037593;28;20887;-82
2021/04/21 08:34:47;;;;;;;28.90;18.00;;;13.90;99.90;;;;;;5039256;28;20873;-81
2021/04/21 08:37:13;;;;;;;26.23;19.80;;;13.80;99.90;;;;;;5039044;28;20482;-82
2021/04/21 08:39:41;;;;;;;26.10;19.20;;;13.80;99.90;;;;;;5038547;28;20528;-81
2021/04/21 08:42:10;;;;;;;30.27;20.27;;;14.00;99.90;;;;;;5043294;28;20513;-82
2021/04/21 08:44:41;;;;;;;24.80;16.90;;;14.10;99.90;;;;;;5037193;28;20460;-82
2021/04/21 08:47:08;;;;;;;26.47;19.37;;;14.10;99.80;;;;;;5037008;28;20489;-81
2021/04/21 08:49:37;;;;;;;24.20;17.50;;;14.20;99.50;;;;;;5037614;28;20537;-82
2021/04/21 08:52:06;;;;;;;25.67;17.20;;;14.30;99.00;;;;;;5036856;28;20520;-83
2021/04/21 08:54:33;;;;;;;24.47;18.97;;;14.30;97.90;;;;;;5056444;28;20507;-82
2021/04/21 08:57:01;;;;;;;25.60;19.50;;;14.30;98.90;;;;;;5058250;28;20487;-80
2021/04/21 08:59:27;;;;;;;21.50;18.13;;;14.40;99.20;;;;;;5062949;28;20537;-81
2021/04/21 09:01:54;;;;;;;30.70;20.90;;;14.40;99.20;;;;;;5057414;28;20484;-82
2021/04/21 09:04:21;;;;;;;25.63;19.23;;;14.50;99.40;;;;;;5057825;28;21001;-82
2021/04/21 09:06:48;;;;;;;31.97;19.77;;;14.60;99.30;;;;;;5059798;28;20480;-83
2021/04/21 09:09:17;;;;;;;24.13;18.00;;;14.80;99.10;;;;;;5054330;28;20536;-82
2021/04/21 09:11:44;;;;;;;21.20;16.47;;;15.00;98.60;;;;;;5056198;28;20951;-82
2021/04/21 09:14:11;;;;;;;26.13;17.90;;;15.00;97.80;;;;;;5046787;28;20587;-82
2021/04/21 09:16:38;;;;;;;29.03;20.67;;;15.10;97.60;;;;;;5041092;28;20596;-82
2021/04/21 09:19:10;;;;;;;25.60;18.13;;;15.00;97.70;;;;;;5045158;28;20499;-82
2021/04/21 09:21:36;;;;;;;23.03;17.07;;;15.10;97.00;;;;;;5063075;28;20473;-81
2021/04/21 09:24:04;;;;;;;25.93;17.40;;;15.20;96.40;;;;;;5059908;28;20556;-80
2021/04/21 09:26:34;;;;;;;21.90;15.83;;;15.20;96.00;;;;;;5058655;28;20466;-83
2021/04/21 09:29:01;;;;;;;18.30;13.37;;;15.30;95.50;;;;;;5056077;28;20427;-81
2021/04/21 09:31:29;;;;;;;20.40;14.37;;;15.40;94.20;;;;;;5055975;28;20514;-80
2021/04/21 09:34:11;;;;;;;19.30;13.00;;;15.40;93.60;;;;;;5056159;28;20464;-82
2021/04/21 09:36:40;;;;;;;19.20;13.60;;;15.50;92.80;;;;;;5042602;28;20516;-81
2021/04/21 09:39:15;;;;;;;19.83;15.47;;;15.50;92.40;;;;;;5035908;28;20496;-82
2021/04/21 09:41:43;;;;;;;20.50;13.47;;;15.60;91.40;;;;;;5035362;28;20452;-84
2021/04/21 09:44:18;;;;;;;19.20;14.13;;;15.70;91.50;;;;;;5041381;28;20454;-82
2021/04/21 09:46:46;;;;;;;16.17;13.93;;;15.90;91.00;;;;;;5043034;28;20424;-83
2021/04/21 09:49:33;;;;;;;17.90;12.23;;;16.00;89.80;;;;;;5036008;28;20492;-83
2021/04/21 09:52:01;;;;;;;14.90;10.93;;;16.20;88.40;;;;;;5047741;28;21004;-81
2021/04/21 09:54:31;;;;;;;19.57;14.70;;;16.20;86.20;;;;;;5054390;28;20564;-80
2021/04/21 09:57:12;;;;;;;17.00;13.00;;;16.00;89.20;;;;;;5054518;28;20527;-81
2021/04/21 09:59:40;;;;;;;17.93;12.77;;;16.10;88.80;;;;;;5055880;28;20473;-81
2021/04/21 10:02:30;;;;;;;14.90;9.80;;;16.20;87.70;;;;;;5058652;28;20440;-80
2021/04/21 10:04:56;;;;;;;16.63;12.10;;;16.20;85.00;;;;;;5056283;28;20984;-81
2021/04/21 10:07:23;;;;;;;17.67;10.57;;;16.00;86.00;;;;;;5054297;28;20547;-81
2021/04/21 10:09:56;;;;;;;18.87;12.77;;;16.10;84.00;;;;;;5055212;28;20439;-83
2021/04/21 10:12:24;;;;;;;13.80;10.80;;;16.10;83.40;;;;;;5055612;28;20469;-82
2021/04/21 10:15:06;;;;;;;16.80;11.23;;;16.30;82.20;;;;;;5035867;28;20496;-81
2021/04/21 10:17:35;;;;;;;15.70;10.70;;;16.30;83.00;;;;;;5039315;28;20444;-80
2021/04/21 10:20:04;;;;;;;16.50;13.17;;;16.40;82.10;;;;;;5051724;28;20492;-82
2021/04/21 10:22:31;;;;;;;16.13;12.57;;;16.50;81.60;;;;;;5054481;28;20448;-81
2021/04/21 10:24:59;;;;;;;13.40;10.93;;;16.70;80.40;;;;;;5047544;28;20523;-83
2021/04/21 10:27:25;;;;;;;16.10;11.73;;;16.60;80.20;;;;;;5035405;28;20529;-82
2021/04/21 10:29:52;;;;;;;16.70;11.60;;;16.50;80.90;;;;;;5033838;28;20834;-82
2021/04/21 10:32:19;;;;;;;13.53;9.57;;;16.50;81.70;;;;;;5034870;28;20452;-82
2021/04/21 10:34:47;;;;;;;15.10;10.93;;;16.60;79.20;;;;;;5035031;28;20454;-82
2021/04/21 10:37:15;;;;;;;18.37;13.67;;;16.60;76.50;;;;;;5035664;28;20539;-82
2021/04/21 10:39:46;;;;;;;15.73;10.67;;;16.70;78.80;;;;;;5040305;28;20533;-82
2021/04/21 10:42:15;;;;;;;16.93;11.00;;;16.70;78.40;;;;;;5084091;22;20980;-87
2021/04/21 10:44:44;;;;;;;15.83;12.63;;;16.60;78.10;;;;;;5062676;28;20419;-88
2021/04/21 10:47:12;;;;;;;15.13;11.07;;;16.70;78.10;;;;;;5059849;28;20415;-87
2021/04/21 10:49:44;;;;;;;14.47;10.87;;;16.80;78.00;;;;;;5061996;28;21034;-87
2021/04/21 10:52:18;;;;;;;17.10;10.73;;;17.00;76.10;;;;;;5058595;28;20443;-87
2021/04/21 10:54:46;;;;;;;17.40;11.00;;;17.10;76.10;;;;;;5058586;28;20419;-86
2021/04/21 10:57:30;;;;;;;14.93;11.60;;;17.20;76.10;;;;;;5062322;28;20460;-86
2021/04/21 11:00:26;;;;;;;15.10;11.10;;;17.30;75.50;;;;;;5079657;28;20809;-87
2021/04/21 11:03:09;;;;;;;14.77;11.60;;;17.50;75.00;;;;;;5068513;28;20492;-87
2021/04/21 11:05:52;;;;;;;16.30;13.20;;;17.40;73.90;;;;;;5089994;28;20383;-86
2021/04/21 11:08:21;;;;;;;13.03;9.00;;;17.50;73.30;;;;;;5093670;28;20407;-85
2021/04/21 11:11:00;;;;;;;15.20;11.10;;;17.40;72.20;;;;;;5089139;28;20482;-85
2021/04/21 11:13:44;;;;;;;13.67;10.17;;;17.40;71.90;;;;;;5091768;28;20432;-87
2021/04/21 11:16:33;;;;;;;14.60;10.67;;;17.60;71.80;;;;;;5046770;28;20415;-87
2021/04/21 11:19:30;;;;;;;13.90;11.70;;;17.50;70.50;;;;;;5044772;28;20549;-87
2021/04/21 11:22:20;;;;;;;14.80;11.20;;;17.60;71.60;;;;;;5044657;28;20460;-85
2021/04/21 11:25:20;;;;;;;15.77;12.23;;;17.70;71.10;;;;;;5045897;28;20424;-86
2021/04/21 11:27:47;;;;;;;14.07;10.90;;;17.80;69.80;;;;;;5048193;28;20445;-86
2021/04/21 11:30:51;;;;;;;16.70;10.70;;;17.90;69.00;;;;;;5049100;28;20979;-85
2021/04/21 11:33:55;;;;;;;11.87;9.63;;;18.10;68.80;;;;;;5067835;28;20454;-85
2021/04/21 11:36:49;;;;;;;12.00;8.90;;;18.20;66.80;;;;;;5067217;28;20429;-85
2021/04/21 11:39:15;;;;;;;11.27;9.40;;;18.20;64.50;;;;;;5070668;28;21002;-85
2021/04/21 11:41:45;;;;;;;36.43;10.70;;;17.80;63.80;;;;;;5073240;28;20455;-85
2021/04/21 11:44:59;;;;;;;11.90;8.13;;;17.80;63.40;;;;;;5062465;28;20460;-86
2021/04/21 11:47:39;;;;;;;21.07;9.33;;;17.90;62.00;;;;;;5036525;28;20478;-86
2021/04/21 11:50:14;;;;;;;12.53;9.13;;;18.10;60.50;;;;;;5065946;28;20444;-87
2021/04/21 11:52:51;;;;;;;11.40;9.60;;;18.30;60.80;;;;;;5066657;28;20522;-86
2021/04/21 11:55:24;;;;;;;13.80;8.60;;;18.40;61.30;;;;;;5066969;28;20504;-86
2021/04/21 11:57:56;;;;;;;13.03;9.27;;;18.40;62.40;;;;;;5070124;28;20620;-87
2021/04/21 12:00:36;;;;;;;13.10;9.70;;;18.50;61.20;;;;;;5075025;28;20412;-84
2021/04/21 12:03:04;;;;;;;13.20;9.60;;;18.50;61.30;;;;;;5073849;28;20450;-86
2021/04/21 12:05:33;;;;;;;13.20;10.27;;;18.60;61.60;;;;;;5065243;28;20495;-86
2021/04/21 12:08:02;;;;;;;11.97;9.77;;;18.60;61.10;;;;;;5074728;28;20424;-86
2021/04/21 12:10:33;;;;;;;14.30;9.27;;;18.60;59.40;;;;;;5062469;28;20523;-86
2021/04/21 12:13:20;;;;;;;12.10;9.90;;;18.60;59.10;;;;;;5065667;28;20431;-84
2021/04/21 12:15:50;;;;;;;11.70;10.50;;;18.40;60.50;;;;;;5074347;28;20445;-85
2021/04/21 12:18:33;;;;;;;11.97;10.00;;;18.20;60.50;;;;;;5066470;28;20805;-85
2021/04/21 12:21:04;;;;;;;12.23;9.60;;;18.30;60.70;;;;;;5074193;28;20734;-86
2021/04/21 12:23:33;;;;;;;14.07;9.17;;;18.50;60.50;;;;;;5076125;28;20400;-86
2021/04/21 12:26:00;;;;;;;14.27;11.67;;;18.60;59.20;;;;;;5066638;28;20594;-85
2021/04/21 12:28:26;;;;;;;15.33;10.80;;;18.50;60.30;;;;;;5060110;28;20951;-87
2021/04/21 12:30:59;;;;;;;10.60;9.43;;;18.60;60.00;;;;;;5060022;28;20435;-86
2021/04/21 12:33:26;;;;;;;12.57;9.53;;;18.70;59.50;;;;;;5059024;28;20459;-85
2021/04/21 12:35:54;;;;;;;12.70;10.17;;;18.70;59.70;;;;;;5058410;28;20453;-87
2021/04/21 12:38:29;;;;;;;13.67;10.07;;;18.30;59.80;;;;;;5060068;28;20925;-84
2021/04/21 12:40:55;;;;;;;13.80;10.27;;;18.30;60.80;;;;;;5057777;28;20590;-87
2021/04/21 12:43:27;;;;;;;11.90;9.40;;;18.50;59.80;;;;;;5069389;28;20527;-85
2021/04/21 12:45:53;;;;;;;12.70;9.73;;;18.60;59.40;;;;;;5079764;28;20456;-85
2021/04/21 12:48:26;;;;;;;11.33;9.13;;;18.50;59.10;;;;;;5077357;28;20519;-86
2021/04/21 12:50:54;;;;;;;20.60;12.00;;;18.60;57.60;;;;;;5078234;28;20484;-85
2021/04/21 12:53:22;;;;;;;10.27;7.90;;;18.70;57.00;;;;;;5079952;28;20458;-84
2021/04/21 12:55:50;;;;;;;14.87;9.00;;;18.90;55.70;;;;;;5076015;28;20426;-88
2021/04/21 12:58:36;;;;;;;12.73;8.80;;;19.20;55.20;;;;;;5074794;28;20549;-86
2021/04/21 13:01:10;;;;;;;9.33;7.00;;;19.40;54.30;;;;;;5081502;28;20426;-86
2021/04/21 13:03:38;;;;;;;11.33;8.60;;;19.50;54.00;;;;;;5076774;28;20451;-85
2021/04/21 13:06:05;;;;;;;9.50;7.87;;;19.60;54.30;;;;;;5077298;28;20476;-87
2021/04/21 13:08:32;;;;;;;11.87;8.63;;;19.50;55.10;;;;;;5079370;28;20952;-85